createdAt,value
2018-09-21T07:13:55.876Z,21.44
2018-09-21T07:14:54.851Z,21.48
2018-09-21T07:15:54.571Z,21.47
2018-09-21T07:16:54.277Z,21.51
2018-09-21T07:17:54.668Z,21.43
2018-09-21T07:20:03.178Z,21.20
2018-09-21T07:21:03.125Z,21.13
2018-09-21T07:22:02.454Z,21.04
2018-09-21T07:23:03.034Z,20.97
2018-09-21T07:24:02.316Z,20.90
2018-09-21T07:25:03.055Z,20.80
2018-09-21T07:26:03.790Z,20.77
2018-09-21T07:27:03.331Z,20.73
2018-09-21T07:28:02.113Z,20.77
2018-09-21T07:29:03.078Z,20.75
2018-09-21T07:30:03.590Z,20.79
2018-09-21T07:31:02.815Z,20.77
2018-09-21T07:32:02.438Z,20.75
2018-09-21T07:33:03.218Z,20.79
2018-09-21T07:34:03.156Z,20.74
2018-09-21T07:35:04.018Z,20.77
2018-09-21T07:36:03.035Z,20.77
2018-09-21T07:37:02.349Z,20.79
2018-09-21T07:38:02.934Z,20.82
2018-09-21T07:39:01.993Z,20.95
2018-09-21T07:40:02.894Z,20.85
2018-09-21T07:43:46.557Z,21.01
2018-09-21T07:44:19.481Z,21.05
2018-09-21T10:06:55.696Z,23.70
2018-09-21T10:07:55.056Z,23.74
2018-09-21T10:08:56.574Z,23.71
2018-09-21T10:09:55.433Z,23.70
2018-09-21T10:10:55.836Z,23.73
2018-09-21T10:11:55.378Z,23.81
2018-09-21T10:12:56.093Z,23.71
2018-09-21T10:13:55.356Z,23.70
2018-09-21T10:14:55.494Z,23.79
2018-09-21T10:15:56.995Z,23.74
2018-09-21T10:16:55.954Z,23.78
2018-09-21T10:17:55.613Z,23.82
2018-09-21T10:18:55.255Z,23.76
2018-09-21T10:19:56.895Z,23.78
2018-09-21T10:20:55.736Z,23.81
2018-09-21T10:21:55.096Z,23.73
2018-09-21T10:22:55.511Z,23.79
2018-09-21T10:23:55.045Z,23.79
2018-09-21T10:24:54.994Z,23.76
2018-09-21T10:25:55.775Z,23.73
2018-09-21T10:26:56.328Z,23.79
2018-09-21T10:27:55.738Z,23.81
2018-09-21T10:28:55.517Z,23.79
2018-09-21T10:29:56.842Z,23.79
2018-09-21T10:30:55.499Z,23.82
2018-09-21T10:31:55.211Z,23.79
2018-09-21T10:32:55.176Z,23.76
2018-09-21T10:33:54.955Z,23.78
2018-09-21T10:34:56.054Z,23.79
2018-09-21T10:35:55.570Z,23.74
2018-09-21T10:36:56.103Z,23.78
2018-09-21T10:37:55.134Z,23.79
2018-09-21T10:38:55.889Z,23.84
2018-09-21T10:39:54.899Z,23.81
2018-09-21T10:40:55.417Z,23.74
2018-09-21T10:41:55.039Z,23.81
2018-09-21T10:42:55.110Z,23.84
2018-09-21T10:43:54.851Z,23.85
2018-09-21T10:44:55.197Z,23.82
2018-09-21T10:45:55.815Z,23.97
2018-09-21T10:46:55.435Z,23.96
2018-09-21T10:47:54.813Z,23.98
2018-09-21T10:48:55.833Z,24.00
2018-09-21T10:49:54.775Z,24.00
2018-09-21T10:50:55.274Z,24.04
2018-09-21T10:51:54.912Z,24.03
2018-09-21T10:52:54.876Z,24.16
2018-09-21T10:53:55.241Z,24.19
2018-09-21T10:54:55.611Z,24.22
2018-09-21T10:55:55.217Z,24.13
2018-09-21T10:56:54.783Z,24.19
2018-09-21T10:57:55.274Z,24.18
2018-09-21T10:58:55.455Z,24.16
2018-09-21T10:59:54.876Z,24.15
2018-09-21T11:00:54.969Z,24.15
2018-09-21T11:01:55.591Z,24.21
2018-09-21T11:02:54.875Z,24.18
2018-09-21T11:03:55.033Z,24.19
2018-09-21T11:04:54.857Z,24.19
2018-09-21T11:05:54.651Z,24.15
2018-09-21T11:06:55.925Z,24.26
2018-09-21T11:07:55.175Z,24.29
2018-09-21T11:08:55.718Z,24.18
2018-09-21T11:09:54.710Z,24.18
2018-09-21T11:10:56.315Z,24.31
2018-09-21T11:11:55.490Z,24.29
2018-09-21T11:12:54.538Z,24.34
2018-09-21T11:13:54.533Z,24.36
2018-09-21T11:14:55.112Z,24.31
2018-09-21T11:15:54.538Z,24.41
2018-09-21T11:16:55.141Z,24.40
2018-09-21T11:17:54.796Z,24.37
